Santa Paula, California
Current Conditions -  °F | °C
As of 9:55 PM on Sunday 23 Nov 2014 (Local Time) from KCMA Reporting Station
Clear Clear  
Wind Chill: 57°   Ceiling: Unl
Heat Index: 57°   Visibility: 10mi
Dew Point: 31°   Wind: 0mph
Humidity: 37%   Direction: NA
Pressure: 30.15"   Gusts: NA
Location:  34.35°N, 119.05°W
Report Text: KCMA 240555Z 00000KT 10SM CLR 14/M01 A3015 RMK AO2 SLP218 T01391006 10222 20122 51007
Loading
Personal Weather Stations






























Interactive Weather Map New forecast layout! Learn more

10-Day Weather Forecast

Advertisements
Track Severe Weather on mobile